Terminal Aerodrome Forecast
Issued by NWS

Home | Current Version | Previous Version | Text Only | Print | Product List | Glossary On
Versions: 1 2 3 4 5 6 7 8 9 10 11 12 13 14 15 16
000
FTUS44 KLIX 150500
TAFMCB
TAF
KMCB 150525Z 1506/1606 01003KT P6SM SCT040
     FM151500 07004KT P6SM SCT035 PROB30 1520/1524 TSRA BKN025CB
     FM160000 VRB03KT P6SM SCT100 SCT250=

USA.gov is the U.S. government's official web portal to all federal, state and local government web resources and services.